createdAt,value
2018-11-23T00:00:10.691Z,36.80
2018-11-23T00:01:10.683Z,36.90
2018-11-23T00:02:10.678Z,37.20
2018-11-23T00:03:10.654Z,36.00
2018-11-23T00:04:10.658Z,37.10
2018-11-23T00:05:10.647Z,36.00
2018-11-23T00:06:10.647Z,36.20
2018-11-23T00:07:10.627Z,36.10
2018-11-23T00:08:10.595Z,36.20
2018-11-23T00:09:10.583Z,36.50
2018-11-23T00:10:11.236Z,36.70
2018-11-23T00:11:10.563Z,36.60
2018-11-23T00:12:10.555Z,36.90
2018-11-23T00:13:10.546Z,37.30
2018-11-23T00:14:10.527Z,36.60
2018-11-23T00:15:10.554Z,36.40
2018-11-23T00:16:10.506Z,36.00
2018-11-23T00:17:10.492Z,35.70
2018-11-23T00:18:10.491Z,36.40
2018-11-23T00:19:10.477Z,37.50
2018-11-23T00:20:10.487Z,37.60
2018-11-23T00:21:10.480Z,35.50
2018-11-23T00:22:10.442Z,36.70
2018-11-23T00:23:10.433Z,37.00
2018-11-23T00:24:10.413Z,36.80
2018-11-23T00:25:10.437Z,36.20
2018-11-23T00:26:10.424Z,35.60
2018-11-23T00:27:10.394Z,37.20
2018-11-23T00:28:10.371Z,36.00
2018-11-23T00:29:10.366Z,36.10
2018-11-23T00:30:10.352Z,36.70
2018-11-23T00:31:10.400Z,36.20
2018-11-23T00:32:10.332Z,36.60
2018-11-23T00:33:10.343Z,36.30
2018-11-23T00:34:10.318Z,36.40
2018-11-23T00:35:10.311Z,35.60
2018-11-23T00:36:10.300Z,35.50
2018-11-23T00:37:10.325Z,36.80
2018-11-23T00:38:10.264Z,36.50
2018-11-23T00:39:10.262Z,36.40
2018-11-23T00:40:10.247Z,37.10
2018-11-23T00:41:10.237Z,37.20
2018-11-23T00:42:10.245Z,36.10
2018-11-23T00:43:10.208Z,35.50
2018-11-23T00:44:10.195Z,36.60
2018-11-23T00:45:10.192Z,35.90
2018-11-23T00:46:10.172Z,35.70
2018-11-23T00:47:10.209Z,37.10
2018-11-23T00:48:10.167Z,37.50
2018-11-23T00:49:10.138Z,36.20
2018-11-23T00:50:10.136Z,37.60
2018-11-23T00:51:10.123Z,36.40
2018-11-23T00:52:10.108Z,37.30
2018-11-23T00:53:10.112Z,37.50
2018-11-23T00:54:10.085Z,37.90
2018-11-23T00:55:10.074Z,36.80
2018-11-23T00:56:10.111Z,37.30
2018-11-23T00:57:10.052Z,37.40
2018-11-23T00:58:10.078Z,37.80
2018-11-23T00:59:10.051Z,36.60
2018-11-23T01:00:10.035Z,37.10
2018-11-23T01:01:10.012Z,36.30
2018-11-23T01:02:10.010Z,36.60
2018-11-23T01:03:10.013Z,36.70
2018-11-23T01:04:09.980Z,35.50
2018-11-23T01:05:09.967Z,37.10
2018-11-23T01:06:09.974Z,36.50
2018-11-23T01:07:09.938Z,37.10
2018-11-23T01:08:09.975Z,35.80
2018-11-23T01:09:09.927Z,36.60
2018-11-23T01:10:09.908Z,37.30
2018-11-23T01:11:09.900Z,36.80
2018-11-23T01:12:09.912Z,37.00
2018-11-23T01:13:10.162Z,37.40
2018-11-23T01:14:09.868Z,36.60
2018-11-23T01:15:09.865Z,36.20
2018-11-23T01:16:09.843Z,36.70
2018-11-23T01:17:09.835Z,37.20
2018-11-23T01:18:09.826Z,37.00
2018-11-23T01:19:09.865Z,36.90
2018-11-23T01:20:09.820Z,36.70
2018-11-23T01:21:09.791Z,37.00
2018-11-23T01:22:09.784Z,36.10
2018-11-23T01:23:09.790Z,37.30
2018-11-23T01:24:09.780Z,37.10
2018-11-23T01:25:09.741Z,38.40
2018-11-23T01:26:09.734Z,37.00
2018-11-23T01:27:09.724Z,36.30
2018-11-23T01:28:09.721Z,37.20
2018-11-23T01:29:09.747Z,36.80
2018-11-23T01:30:09.685Z,36.90
2018-11-23T01:31:09.677Z,37.00
2018-11-23T01:32:09.697Z,37.70
2018-11-23T01:33:09.656Z,37.40
2018-11-23T01:34:09.678Z,38.40
2018-11-23T01:35:09.633Z,38.10
2018-11-23T01:36:09.624Z,38.20
2018-11-23T01:37:09.635Z,38.70
2018-11-23T01:38:09.611Z,38.10
2018-11-23T01:39:09.597Z,37.70
2018-11-23T01:40:09.608Z,38.00
2018-11-23T01:41:09.577Z,37.80
2018-11-23T01:42:09.558Z,38.70
2018-11-23T01:43:09.553Z,37.20
2018-11-23T01:44:09.534Z,38.80
2018-11-23T01:45:09.538Z,39.10
2018-11-23T01:46:09.526Z,37.90
2018-11-23T01:47:09.508Z,38.10
2018-11-23T01:48:09.489Z,38.40
2018-11-23T01:49:09.484Z,39.70
2018-11-23T01:50:09.499Z,38.70
2018-11-23T01:51:09.462Z,38.90
2018-11-23T01:52:09.444Z,39.50
2018-11-23T01:53:09.445Z,38.60
2018-11-23T01:54:09.427Z,38.40
2018-11-23T01:55:09.445Z,38.20
2018-11-23T01:56:09.411Z,37.90
2018-11-23T01:57:09.387Z,38.80
2018-11-23T01:58:09.381Z,37.70
2018-11-23T01:59:09.377Z,37.50
2018-11-23T02:00:09.356Z,38.70
2018-11-23T02:01:09.362Z,38.10
2018-11-23T02:02:09.336Z,38.50
2018-11-23T02:03:09.327Z,38.60
2018-11-23T02:04:09.317Z,38.90
2018-11-23T02:05:09.305Z,38.90
2018-11-23T02:06:09.309Z,38.60
2018-11-23T02:07:09.301Z,38.80
2018-11-23T02:08:09.285Z,37.40
2018-11-23T02:09:09.253Z,38.00
2018-11-23T02:10:09.258Z,39.40
2018-11-23T02:11:09.263Z,38.40
2018-11-23T02:12:09.222Z,38.60
2018-11-23T02:13:09.215Z,39.00
2018-11-23T02:14:09.215Z,37.80
2018-11-23T02:15:09.204Z,39.00
2018-11-23T02:16:09.211Z,37.40
2018-11-23T02:17:09.180Z,38.90
2018-11-23T02:18:09.157Z,40.00
2018-11-23T02:19:09.148Z,39.80
2018-11-23T02:20:09.152Z,39.70
2018-11-23T02:21:09.130Z,39.80
2018-11-23T02:22:09.133Z,38.20
2018-11-23T02:23:09.100Z,38.30
2018-11-23T02:24:09.113Z,38.00
2018-11-23T02:25:09.081Z,39.20
2018-11-23T02:26:09.084Z,38.00
2018-11-23T02:27:09.095Z,38.30
2018-11-23T02:28:09.044Z,37.60
2018-11-23T02:29:09.039Z,38.00
2018-11-23T02:30:09.029Z,37.50
2018-11-23T02:31:09.013Z,38.40
2018-11-23T02:32:09.024Z,38.20
2018-11-23T02:33:09.021Z,38.10
2018-11-23T02:34:08.993Z,39.50
2018-11-23T02:35:08.995Z,37.90
2018-11-23T02:36:08.962Z,38.30
2018-11-23T02:37:08.960Z,37.90
2018-11-23T02:38:08.982Z,38.60
2018-11-23T02:39:08.936Z,38.10
2018-11-23T02:40:08.938Z,37.40
2018-11-23T02:41:08.910Z,38.00
2018-11-23T02:42:08.900Z,38.70
2018-11-23T02:43:08.922Z,37.90
2018-11-23T02:44:08.886Z,37.40
2018-11-23T02:45:08.868Z,37.80
2018-11-23T02:46:08.862Z,38.20
2018-11-23T02:47:08.841Z,37.90
2018-11-23T02:48:08.843Z,39.10
2018-11-23T02:49:08.831Z,38.70
2018-11-23T02:50:08.807Z,39.10
2018-11-23T02:51:08.799Z,37.30
2018-11-23T02:52:08.825Z,38.50
2018-11-23T02:53:08.775Z,37.20
2018-11-23T02:54:08.785Z,37.60
2018-11-23T02:55:08.754Z,38.20
2018-11-23T02:56:08.742Z,39.30
2018-11-23T02:57:08.737Z,38.30
2018-11-23T02:58:08.716Z,39.00
2018-11-23T02:59:08.729Z,37.50
2018-11-23T03:00:08.694Z,39.00
2018-11-23T03:01:08.694Z,37.90
2018-11-23T03:02:08.670Z,38.30
2018-11-23T03:03:08.662Z,38.60
2018-11-23T03:04:08.689Z,38.90
2018-11-23T03:05:08.638Z,39.00
2018-11-23T03:06:08.629Z,38.70
2018-11-23T03:07:08.624Z,38.70
2018-11-23T03:08:08.603Z,39.10
2018-11-23T03:09:08.595Z,38.70
2018-11-23T03:10:08.617Z,39.00
2018-11-23T03:11:08.576Z,39.20
2018-11-23T03:12:08.561Z,37.80
2018-11-23T03:13:08.553Z,38.90
2018-11-23T03:14:08.554Z,38.80
2018-11-23T03:15:08.555Z,38.90
2018-11-23T03:16:08.547Z,39.00
2018-11-23T03:17:08.508Z,38.40
2018-11-23T03:18:08.501Z,40.20
2018-11-23T03:19:08.495Z,37.70
2018-11-23T03:20:08.503Z,37.70
2018-11-23T03:21:08.542Z,38.00
2018-11-23T03:22:08.474Z,40.10
2018-11-23T03:23:08.448Z,39.80
2018-11-23T03:24:08.445Z,39.30
2018-11-23T03:25:08.432Z,38.90
2018-11-23T03:26:08.427Z,39.60
2018-11-23T03:27:08.426Z,40.40
2018-11-23T03:28:08.393Z,39.70
2018-11-23T03:29:08.388Z,39.00
2018-11-23T03:30:08.368Z,39.30
2018-11-23T03:31:12.544Z,40.40
2018-11-23T03:32:08.382Z,39.70
2018-11-23T03:33:08.338Z,38.50
2018-11-23T03:34:08.323Z,38.80
2018-11-23T03:35:08.339Z,38.60
2018-11-23T03:36:08.309Z,37.90
2018-11-23T03:37:08.342Z,38.90
2018-11-23T03:38:08.312Z,38.70
2018-11-23T03:39:08.299Z,37.40
2018-11-23T03:40:08.273Z,37.80
2018-11-23T03:41:08.257Z,38.40
2018-11-23T03:42:08.238Z,37.60
2018-11-23T03:43:08.265Z,39.40
2018-11-23T03:44:08.215Z,39.30
2018-11-23T03:45:08.204Z,39.40
2018-11-23T03:46:08.205Z,38.60
2018-11-23T03:47:08.182Z,38.70
2018-11-23T03:48:08.206Z,38.50
2018-11-23T03:49:08.162Z,38.30
2018-11-23T03:50:08.159Z,38.50
2018-11-23T03:51:08.137Z,37.90
2018-11-23T03:52:08.138Z,39.60
2018-11-23T03:53:08.116Z,38.60
2018-11-23T03:54:08.127Z,38.40
2018-11-23T03:55:08.093Z,37.70
2018-11-23T03:56:08.083Z,39.30
2018-11-23T03:57:08.074Z,38.60
2018-11-23T03:58:08.059Z,39.20
2018-11-23T03:59:08.078Z,38.60
2018-11-23T04:00:08.051Z,38.10
2018-11-23T04:01:08.046Z,38.60
2018-11-23T04:02:08.014Z,38.30
2018-11-23T04:03:08.009Z,39.30
2018-11-23T04:04:08.013Z,38.90
2018-11-23T04:05:07.982Z,39.10
2018-11-23T04:06:07.974Z,38.50
2018-11-23T04:07:07.980Z,38.50
2018-11-23T04:08:07.957Z,37.90
2018-11-23T04:09:07.965Z,38.60
2018-11-23T04:10:07.959Z,38.70
2018-11-23T04:11:07.924Z,38.60
2018-11-23T04:12:07.912Z,38.60
2018-11-23T04:13:07.902Z,37.80
2018-11-23T04:14:07.904Z,38.50
2018-11-23T04:15:07.891Z,38.60
2018-11-23T04:16:07.878Z,38.50
2018-11-23T04:17:07.859Z,38.40
2018-11-23T04:18:07.853Z,37.30
2018-11-23T04:19:07.833Z,38.50
2018-11-23T04:20:07.867Z,38.90
2018-11-23T04:21:07.830Z,37.50
2018-11-23T04:22:07.801Z,37.50
2018-11-23T04:23:07.787Z,38.10
2018-11-23T04:24:07.790Z,37.30
2018-11-23T04:25:07.788Z,37.50
2018-11-23T04:26:07.760Z,38.00
2018-11-23T04:27:07.752Z,38.40
2018-11-23T04:28:07.752Z,37.10
2018-11-23T04:29:07.738Z,37.70
2018-11-23T04:30:07.746Z,37.80
2018-11-23T04:31:07.709Z,38.50
2018-11-23T04:32:07.692Z,38.80
2018-11-23T04:33:07.683Z,38.10
2018-11-23T04:34:07.665Z,39.20
2018-11-23T04:35:07.661Z,38.10
2018-11-23T04:36:07.665Z,37.70
2018-11-23T04:37:07.647Z,38.00
2018-11-23T04:38:07.625Z,38.90
2018-11-23T04:39:07.616Z,39.40
2018-11-23T04:40:07.607Z,38.40
2018-11-23T04:41:07.621Z,38.20
2018-11-23T04:42:07.581Z,38.60
2018-11-23T04:43:07.566Z,37.90
2018-11-23T04:44:07.566Z,38.90
2018-11-23T04:45:07.543Z,37.70
2018-11-23T04:46:07.553Z,38.90
2018-11-23T04:47:07.532Z,37.80
2018-11-23T04:48:07.511Z,39.20
2018-11-23T04:49:07.507Z,38.30
2018-11-23T04:50:07.496Z,37.50
2018-11-23T04:51:07.521Z,37.80
2018-11-23T04:52:07.471Z,36.50
2018-11-23T04:53:07.475Z,37.00
2018-11-23T04:54:07.446Z,36.90
2018-11-23T04:55:07.433Z,37.80
2018-11-23T04:56:07.476Z,38.40
2018-11-23T04:57:07.418Z,37.20
2018-11-23T04:58:07.407Z,37.60
2018-11-23T04:59:07.391Z,38.90
2018-11-23T05:00:07.383Z,38.20
2018-11-23T05:01:07.380Z,37.30
2018-11-23T05:02:07.381Z,37.10
2018-11-23T05:03:07.348Z,37.20
2018-11-23T05:04:07.357Z,38.10
2018-11-23T05:05:07.331Z,38.00
2018-11-23T05:06:07.314Z,38.10
2018-11-23T05:07:07.319Z,37.40
2018-11-23T05:08:07.298Z,37.10
2018-11-23T05:09:07.297Z,37.00
2018-11-23T05:10:07.270Z,37.80
2018-11-23T05:11:07.265Z,37.60
2018-11-23T05:12:07.295Z,38.60
2018-11-23T05:13:07.237Z,38.60
2018-11-23T05:14:07.229Z,37.60
2018-11-23T05:15:07.224Z,36.40
2018-11-23T05:16:07.204Z,37.70
2018-11-23T05:17:07.223Z,37.50
2018-11-23T05:18:07.203Z,36.70
2018-11-23T05:19:07.178Z,37.40
2018-11-23T05:20:07.167Z,37.80
2018-11-23T05:21:07.154Z,37.30
2018-11-23T05:22:07.137Z,37.60
2018-11-23T05:23:07.166Z,37.10
2018-11-23T05:24:07.119Z,36.80
2018-11-23T05:25:07.108Z,37.50
2018-11-23T05:26:07.100Z,37.50
2018-11-23T05:27:07.097Z,36.60
2018-11-23T05:28:07.105Z,37.30
2018-11-23T05:29:07.058Z,37.80
2018-11-23T05:30:07.054Z,37.40
2018-11-23T05:31:07.064Z,37.30
2018-11-23T05:32:07.030Z,38.10
2018-11-23T05:33:07.018Z,37.20
2018-11-23T05:34:07.028Z,37.00
2018-11-23T05:35:06.996Z,36.70
2018-11-23T05:36:07.004Z,36.90
2018-11-23T05:37:06.986Z,37.10
2018-11-23T05:38:06.964Z,37.90
2018-11-23T05:39:06.968Z,36.60
2018-11-23T05:40:06.972Z,38.90
2018-11-23T05:41:06.925Z,37.50
2018-11-23T05:42:06.933Z,37.90
2018-11-23T05:43:06.927Z,36.30
2018-11-23T05:44:06.936Z,37.00
2018-11-23T05:45:06.906Z,36.90
2018-11-23T05:46:06.895Z,35.70
2018-11-23T05:47:06.859Z,37.10
2018-11-23T05:48:06.853Z,36.60
2018-11-23T05:49:06.866Z,37.00
2018-11-23T05:50:06.871Z,35.80
2018-11-23T05:51:06.816Z,38.10
2018-11-23T05:52:06.825Z,36.40
2018-11-23T05:53:06.805Z,37.70
2018-11-23T05:54:06.786Z,36.50
2018-11-23T05:55:06.843Z,35.60
2018-11-23T05:56:06.780Z,35.20
2018-11-23T05:57:06.750Z,36.50
2018-11-23T05:58:06.755Z,36.80
2018-11-23T05:59:06.747Z,36.60
2018-11-23T06:00:06.764Z,36.30
2018-11-23T06:01:06.706Z,35.90
2018-11-23T06:02:06.697Z,36.00
2018-11-23T06:03:06.703Z,36.40
2018-11-23T06:04:06.676Z,35.30
2018-11-23T06:05:06.687Z,36.50
2018-11-23T06:06:06.680Z,36.50
2018-11-23T06:07:06.651Z,37.00
2018-11-23T06:08:06.640Z,36.10
2018-11-23T06:09:06.621Z,36.00
2018-11-23T06:10:06.622Z,36.10
2018-11-23T06:11:06.619Z,36.40
2018-11-23T06:12:06.586Z,36.90
2018-11-23T06:13:06.581Z,36.10
2018-11-23T06:14:06.576Z,37.30
2018-11-23T06:15:06.556Z,35.50
2018-11-23T06:16:06.582Z,36.50
2018-11-23T06:17:06.546Z,36.40
2018-11-23T06:18:06.531Z,36.60
2018-11-23T06:19:06.518Z,36.10
2018-11-23T06:20:06.522Z,36.70
2018-11-23T06:21:06.495Z,36.10
2018-11-23T06:22:06.503Z,35.00
2018-11-23T06:23:06.467Z,36.10
2018-11-23T06:24:06.483Z,35.80
2018-11-23T06:25:06.454Z,36.60
2018-11-23T06:26:06.448Z,36.20
2018-11-23T06:27:06.451Z,34.40
2018-11-23T06:28:06.416Z,34.40
2018-11-23T06:29:06.421Z,36.00
2018-11-23T06:30:06.408Z,35.30
2018-11-23T06:31:06.408Z,36.30
2018-11-23T06:32:06.412Z,35.30
2018-11-23T06:33:06.375Z,35.00
2018-11-23T06:34:06.349Z,36.20
2018-11-23T06:35:06.373Z,35.80
2018-11-23T06:36:06.329Z,35.60
2018-11-23T06:37:06.314Z,35.80
2018-11-23T06:38:06.321Z,36.10
2018-11-23T06:39:06.314Z,35.40
2018-11-23T06:40:06.278Z,35.30
2018-11-23T06:41:10.178Z,35.80
2018-11-23T06:42:06.265Z,36.90
2018-11-23T06:43:06.267Z,38.20
2018-11-23T06:44:06.244Z,38.40
2018-11-23T06:45:06.243Z,39.70
2018-11-23T06:46:06.218Z,39.70
2018-11-23T06:47:06.203Z,39.20
2018-11-23T06:48:06.246Z,39.60
2018-11-23T06:49:06.211Z,38.30
2018-11-23T06:50:06.168Z,37.40
2018-11-23T06:51:06.157Z,39.40
2018-11-23T06:52:06.153Z,38.80
2018-11-23T06:53:06.141Z,36.00
2018-11-23T06:54:06.148Z,36.60
2018-11-23T06:55:06.122Z,37.40
2018-11-23T06:56:06.111Z,36.70
2018-11-23T06:57:06.116Z,35.60
2018-11-23T06:58:06.083Z,36.10
2018-11-23T06:59:06.111Z,35.90
2018-11-23T07:00:06.066Z,36.00
2018-11-23T07:01:06.048Z,35.90
2018-11-23T07:02:06.040Z,34.80
2018-11-23T07:03:06.048Z,34.80
2018-11-23T07:04:06.049Z,34.80
2018-11-23T07:05:06.007Z,34.10
2018-11-23T07:06:05.998Z,35.00
2018-11-23T07:07:06.007Z,33.70
2018-11-23T07:08:06.017Z,34.20
2018-11-23T07:09:06.016Z,34.40
2018-11-23T07:10:05.954Z,33.80
2018-11-23T07:11:05.941Z,32.90
2018-11-23T07:12:05.926Z,34.30
2018-11-23T07:13:05.921Z,33.80
2018-11-23T07:14:05.931Z,33.00
2018-11-23T07:15:05.910Z,33.00
2018-11-23T07:16:05.895Z,33.50
2018-11-23T07:17:05.910Z,32.80
2018-11-23T07:18:05.874Z,32.70
2018-11-23T07:19:05.849Z,32.00
2018-11-23T07:20:05.873Z,32.00
2018-11-23T07:21:05.832Z,32.70
2018-11-23T07:22:05.826Z,33.10
2018-11-23T07:23:05.809Z,32.70
2018-11-23T07:24:05.797Z,33.50
2018-11-23T07:25:05.812Z,32.10
2018-11-23T07:26:05.802Z,32.10
2018-11-23T07:27:05.764Z,32.70
2018-11-23T07:28:05.791Z,31.80
2018-11-23T07:29:05.751Z,32.30
2018-11-23T07:30:05.727Z,32.80
2018-11-23T07:31:05.735Z,32.70
2018-11-23T07:32:05.708Z,32.30
2018-11-23T07:33:05.697Z,32.70
2018-11-23T07:34:05.686Z,33.50
2018-11-23T07:35:05.698Z,33.00
2018-11-23T07:36:05.679Z,33.20
2018-11-23T07:37:05.653Z,33.60
2018-11-23T07:38:05.640Z,33.30
2018-11-23T07:39:05.629Z,33.10
2018-11-23T07:40:05.639Z,33.20
2018-11-23T07:41:05.636Z,33.10
2018-11-23T07:42:05.603Z,33.30
2018-11-23T07:43:05.591Z,33.00
2018-11-23T07:44:05.601Z,33.90
2018-11-23T07:45:05.561Z,32.90
2018-11-23T07:46:05.581Z,32.30
2018-11-23T07:47:05.570Z,32.20
2018-11-23T07:48:05.534Z,31.90
2018-11-23T07:49:05.518Z,30.60
2018-11-23T07:50:05.536Z,31.90
2018-11-23T07:51:05.501Z,31.40
2018-11-23T07:52:05.487Z,31.60
2018-11-23T07:53:05.489Z,32.20
2018-11-23T07:54:05.480Z,31.60
2018-11-23T07:55:05.478Z,30.70
2018-11-23T07:56:05.448Z,30.60
2018-11-23T07:57:05.433Z,31.40
2018-11-23T07:58:05.431Z,31.00
2018-11-23T07:59:05.432Z,31.30
2018-11-23T08:00:05.434Z,31.00
2018-11-23T08:01:05.386Z,30.10
2018-11-23T08:02:05.386Z,30.00
2018-11-23T08:03:05.388Z,29.80
2018-11-23T08:04:05.355Z,30.10
2018-11-23T08:05:05.343Z,29.10
2018-11-23T08:06:05.351Z,30.80
2018-11-23T08:07:05.346Z,29.20
2018-11-23T08:08:05.311Z,29.00
2018-11-23T08:09:05.314Z,29.20
2018-11-23T08:10:05.309Z,28.30
2018-11-23T08:11:05.304Z,29.40
2018-11-23T08:12:05.280Z,29.40
2018-11-23T08:13:05.263Z,28.80
2018-11-23T08:14:05.292Z,28.80
2018-11-23T08:15:05.254Z,28.50
2018-11-23T08:16:05.227Z,28.40
2018-11-23T08:17:05.220Z,27.60
2018-11-23T08:18:05.205Z,27.40
2018-11-23T08:19:05.208Z,27.50
2018-11-23T08:20:05.212Z,27.40
2018-11-23T08:21:05.170Z,27.40
2018-11-23T08:22:05.163Z,27.50
2018-11-23T08:23:05.149Z,27.80
2018-11-23T08:24:05.150Z,27.50
2018-11-23T08:25:05.146Z,27.20
2018-11-23T08:26:05.154Z,26.40
2018-11-23T08:27:05.114Z,26.90
2018-11-23T08:28:05.111Z,27.00
2018-11-23T08:29:05.085Z,26.00
2018-11-23T08:30:05.101Z,25.80
2018-11-23T08:31:05.096Z,26.00
2018-11-23T08:32:05.057Z,26.30
2018-11-23T08:33:05.050Z,25.70
2018-11-23T08:34:05.030Z,26.20
2018-11-23T08:35:05.043Z,26.30
2018-11-23T08:36:05.028Z,25.80
2018-11-23T08:37:05.021Z,25.30
2018-11-23T08:38:04.989Z,24.30
2018-11-23T08:39:04.981Z,24.90
2018-11-23T08:40:05.013Z,24.90
2018-11-23T08:41:05.543Z,24.50
2018-11-23T08:42:04.955Z,24.90
2018-11-23T08:43:04.940Z,24.10
2018-11-23T08:44:04.918Z,24.90
2018-11-23T08:45:04.942Z,23.40
2018-11-23T08:46:04.919Z,23.20
2018-11-23T08:47:04.898Z,23.60
2018-11-23T08:48:04.878Z,23.70
2018-11-23T08:49:04.870Z,23.00
2018-11-23T08:50:04.861Z,22.70
2018-11-23T08:51:04.862Z,22.80
2018-11-23T08:52:04.838Z,22.00
2018-11-23T08:53:04.826Z,21.70
2018-11-23T08:54:04.837Z,21.20
2018-11-23T08:55:04.802Z,21.50
2018-11-23T08:56:04.806Z,22.30
2018-11-23T08:57:04.795Z,20.90
2018-11-23T08:58:04.768Z,21.00
2018-11-23T08:59:04.775Z,21.10
2018-11-23T09:00:04.749Z,20.80
2018-11-23T09:01:04.738Z,20.80
2018-11-23T09:02:04.782Z,20.30
2018-11-23T09:03:04.732Z,20.60
2018-11-23T09:04:04.740Z,20.10
2018-11-23T09:05:04.720Z,20.50
2018-11-23T09:06:04.679Z,19.90
2018-11-23T09:07:04.682Z,20.20
2018-11-23T09:08:04.674Z,20.40
2018-11-23T09:09:04.662Z,19.80
2018-11-23T09:10:04.685Z,19.80
2018-11-23T09:11:04.626Z,20.10
2018-11-23T09:12:04.618Z,20.10
2018-11-23T09:13:04.609Z,20.10
2018-11-23T09:14:04.601Z,19.60
2018-11-23T09:15:04.596Z,19.10
2018-11-23T09:16:04.578Z,19.60
2018-11-23T09:17:04.573Z,20.10
2018-11-23T09:18:04.552Z,19.70
2018-11-23T09:19:04.545Z,19.40
2018-11-23T09:20:04.565Z,19.80
2018-11-23T09:21:04.517Z,18.50
2018-11-23T09:22:04.558Z,19.90
2018-11-23T09:23:04.500Z,19.10
2018-11-23T09:24:04.490Z,18.90
2018-11-23T09:25:04.478Z,18.90
2018-11-23T09:26:04.490Z,18.60
2018-11-23T09:27:04.456Z,18.60
2018-11-23T09:28:04.448Z,18.60
2018-11-23T09:29:04.466Z,18.50
2018-11-23T09:30:04.442Z,18.80
2018-11-23T09:31:04.455Z,18.40
2018-11-23T09:32:04.402Z,17.50
2018-11-23T09:33:04.386Z,16.80
2018-11-23T09:34:04.383Z,16.50
2018-11-23T09:35:04.420Z,17.50
2018-11-23T09:36:04.386Z,17.20
2018-11-23T09:37:04.364Z,16.60
2018-11-23T09:38:04.349Z,15.90
2018-11-23T09:39:04.325Z,16.80
2018-11-23T09:40:04.338Z,17.00
2018-11-23T09:41:04.308Z,16.70
2018-11-23T09:42:04.325Z,16.60
2018-11-23T09:43:04.292Z,16.70
2018-11-23T09:44:04.270Z,16.70
2018-11-23T09:45:04.259Z,17.10
2018-11-23T09:46:04.250Z,17.50
2018-11-23T09:47:10.011Z,16.70
2018-11-23T09:48:06.590Z,17.10
2018-11-23T09:49:04.216Z,17.40
2018-11-23T09:50:04.206Z,17.50
2018-11-23T09:51:04.199Z,17.70
2018-11-23T09:52:04.217Z,17.50
2018-11-23T09:53:04.176Z,17.40
2018-11-23T09:54:04.167Z,16.70
2018-11-23T09:55:04.169Z,17.10
2018-11-23T09:56:04.186Z,16.10
2018-11-23T09:57:04.151Z,16.60
2018-11-23T09:58:04.142Z,17.00
2018-11-23T09:59:04.114Z,17.10
2018-11-23T10:00:04.107Z,16.70
2018-11-23T10:01:04.092Z,17.20
2018-11-23T10:02:04.102Z,17.20
2018-11-23T10:03:04.112Z,16.80
2018-11-23T10:04:04.058Z,16.50
2018-11-23T10:05:04.044Z,16.30
2018-11-23T10:06:04.052Z,15.20
2018-11-23T10:07:04.060Z,14.90
2018-11-23T10:08:04.039Z,14.00
2018-11-23T10:09:04.014Z,14.80
2018-11-23T10:10:03.997Z,14.50
2018-11-23T10:11:03.985Z,14.30
2018-11-23T10:12:04.000Z,14.10
2018-11-23T10:13:03.971Z,13.80
2018-11-23T10:14:03.951Z,13.50
2018-11-23T10:15:03.956Z,13.60
2018-11-23T10:16:03.929Z,13.70
2018-11-23T10:17:03.935Z,13.40
2018-11-23T10:18:03.907Z,12.80
2018-11-23T10:19:03.886Z,12.80
2018-11-23T10:20:03.882Z,13.30
2018-11-23T10:21:03.892Z,13.20
2018-11-23T10:22:03.899Z,13.90
2018-11-23T10:23:03.852Z,13.80
2018-11-23T10:24:03.858Z,13.80
2018-11-23T10:25:03.843Z,13.00
2018-11-23T10:26:03.815Z,13.20
2018-11-23T10:27:03.875Z,13.20
2018-11-23T10:28:03.816Z,12.80
2018-11-23T10:29:03.783Z,13.40
2018-11-23T10:30:03.791Z,13.00
2018-11-23T10:31:03.781Z,13.50
2018-11-23T10:32:03.840Z,13.00
2018-11-23T10:33:03.759Z,13.80
2018-11-23T10:34:03.763Z,13.30
2018-11-23T10:35:03.721Z,13.30
2018-11-23T10:36:03.714Z,13.20
2018-11-23T10:37:03.700Z,12.90
2018-11-23T10:38:03.781Z,13.90
2018-11-23T10:39:03.677Z,13.70
2018-11-23T10:40:03.666Z,13.90
2018-11-23T10:41:03.655Z,14.10
2018-11-23T10:42:03.653Z,13.70
2018-11-23T10:43:03.655Z,13.70
2018-11-23T10:44:03.615Z,13.90
2018-11-23T10:45:03.617Z,13.90
2018-11-23T10:46:03.619Z,13.60
2018-11-23T10:47:03.587Z,13.70
2018-11-23T10:48:03.606Z,14.10
2018-11-23T10:49:03.597Z,14.10
2018-11-23T10:50:03.553Z,13.70
2018-11-23T10:51:03.542Z,13.60
2018-11-23T10:52:03.530Z,14.00
2018-11-23T10:53:03.516Z,14.00
2018-11-23T10:54:03.525Z,13.90
2018-11-23T10:55:03.517Z,14.50
2018-11-23T10:56:03.489Z,14.60
2018-11-23T10:57:03.554Z,14.10
2018-11-23T10:58:03.469Z,14.40
2018-11-23T10:59:03.458Z,14.20
2018-11-23T11:00:03.475Z,13.70
2018-11-23T11:01:03.471Z,14.00
2018-11-23T11:02:03.430Z,14.30
2018-11-23T11:03:03.411Z,14.60
2018-11-23T11:04:03.408Z,14.40
2018-11-23T11:05:03.408Z,14.20
2018-11-23T11:06:03.398Z,14.30
2018-11-23T11:07:03.373Z,14.10
2018-11-23T11:08:03.366Z,14.20
2018-11-23T11:09:03.348Z,13.80
2018-11-23T11:10:03.341Z,14.20
2018-11-23T11:11:03.343Z,14.50
2018-11-23T11:12:03.313Z,14.20
2018-11-23T11:13:03.307Z,14.50
2018-11-23T11:14:03.314Z,14.30
2018-11-23T11:15:03.275Z,14.20
2018-11-23T11:16:03.306Z,14.50
2018-11-23T11:17:03.252Z,14.60
2018-11-23T11:18:03.246Z,14.20
2018-11-23T11:19:03.237Z,14.10
2018-11-23T11:20:03.243Z,14.70
2018-11-23T11:21:03.224Z,15.00
2018-11-23T11:22:03.214Z,15.30
2018-11-23T11:23:03.200Z,14.70
2018-11-23T11:24:03.174Z,14.80
2018-11-23T11:25:03.169Z,14.60
2018-11-23T11:26:03.170Z,14.80
2018-11-23T11:27:03.179Z,14.50
2018-11-23T11:28:03.149Z,14.60
2018-11-23T11:29:03.123Z,14.60
2018-11-23T11:30:03.117Z,15.10
2018-11-23T11:31:03.099Z,14.90
2018-11-23T11:32:03.094Z,14.40
2018-11-23T11:33:03.122Z,14.80
2018-11-23T11:34:03.091Z,14.50
2018-11-23T11:35:03.069Z,15.00
2018-11-23T11:36:03.051Z,14.30
2018-11-23T11:37:03.035Z,15.10
2018-11-23T11:38:03.026Z,14.40
2018-11-23T11:39:03.040Z,15.20
2018-11-23T11:40:03.051Z,15.30
2018-11-23T11:41:03.013Z,15.40
2018-11-23T11:42:02.990Z,14.60
2018-11-23T11:43:02.979Z,15.00
2018-11-23T11:44:02.979Z,14.90
2018-11-23T11:45:02.965Z,14.60
2018-11-23T11:46:02.936Z,15.10
2018-11-23T11:47:02.940Z,15.60
2018-11-23T11:48:02.925Z,15.40
2018-11-23T11:49:02.925Z,15.10
2018-11-23T11:50:02.894Z,15.00
2018-11-23T11:51:02.885Z,15.30
2018-11-23T11:52:02.878Z,15.10
2018-11-23T11:53:02.878Z,14.90
2018-11-23T11:54:02.883Z,15.00
2018-11-23T11:55:02.835Z,15.40
2018-11-23T11:56:02.834Z,15.00
2018-11-23T11:57:02.821Z,15.40
2018-11-23T11:58:02.820Z,15.30
2018-11-23T11:59:02.830Z,15.60
2018-11-23T12:00:02.782Z,15.40
2018-11-23T12:01:02.812Z,15.20
2018-11-23T12:02:02.755Z,14.50
2018-11-23T12:03:02.784Z,15.60
2018-11-23T12:04:02.765Z,15.40
2018-11-23T12:05:02.740Z,15.00
2018-11-23T12:06:02.725Z,15.20
2018-11-23T12:07:02.703Z,15.50
2018-11-23T12:08:02.714Z,15.70
2018-11-23T12:09:02.704Z,15.80
2018-11-23T12:10:02.672Z,16.10
2018-11-23T12:11:02.669Z,15.60
2018-11-23T12:12:02.657Z,15.60
2018-11-23T12:13:02.647Z,16.20
2018-11-23T12:14:02.665Z,16.00
2018-11-23T12:15:02.621Z,16.50
2018-11-23T12:16:02.625Z,16.20
2018-11-23T12:17:02.607Z,16.40
2018-11-23T12:18:02.592Z,16.50
2018-11-23T12:19:02.600Z,16.20
2018-11-23T12:20:02.566Z,16.00
2018-11-23T12:21:02.552Z,15.60
2018-11-23T12:22:02.542Z,15.50
2018-11-23T12:23:02.526Z,16.20
2018-11-23T12:24:02.547Z,15.70
2018-11-23T12:25:02.507Z,16.10
2018-11-23T12:26:02.504Z,15.70
2018-11-23T12:27:02.497Z,16.00
2018-11-23T12:28:02.474Z,15.60
2018-11-23T12:29:02.473Z,16.30
2018-11-23T12:30:02.479Z,16.70
2018-11-23T12:31:02.440Z,16.40
2018-11-23T12:32:02.444Z,16.00
2018-11-23T12:33:02.428Z,16.20
2018-11-23T12:34:02.417Z,16.70
2018-11-23T12:35:02.439Z,15.90
2018-11-23T12:36:02.392Z,16.10
2018-11-23T12:37:02.371Z,16.30
2018-11-23T12:38:02.372Z,16.50
2018-11-23T12:39:02.394Z,16.20
2018-11-23T12:40:02.383Z,15.60
2018-11-23T12:41:02.327Z,16.30
2018-11-23T12:42:02.332Z,16.40
2018-11-23T12:43:02.310Z,16.20
2018-11-23T12:44:02.307Z,15.80
2018-11-23T12:45:02.319Z,16.20
2018-11-23T12:46:02.292Z,16.30
2018-11-23T12:47:02.270Z,16.70
2018-11-23T12:48:02.281Z,16.20
2018-11-23T12:49:02.242Z,16.00
2018-11-23T12:50:02.249Z,15.90
2018-11-23T12:51:02.224Z,15.80
2018-11-23T12:52:02.206Z,15.90